sensor_id;sensor_type;location;lat;lon;timestamp;P1;durP1;ratioP1;P2;durP2;ratioP2
45650;SDS011;31365;48.858;8.530;2023-07-30T00:01:43;0.80;;;0.80;;
45650;SDS011;31365;48.858;8.530;2023-07-30T00:04:11;1.50;;;0.70;;
45650;SDS011;31365;48.858;8.530;2023-07-30T00:06:40;1.40;;;0.97;;
45650;SDS011;31365;48.858;8.530;2023-07-30T00:09:08;1.07;;;0.90;;
45650;SDS011;31365;48.858;8.530;2023-07-30T00:11:36;1.53;;;0.60;;
45650;SDS011;31365;48.858;8.530;2023-07-30T00:14:04;2.57;;;1.07;;
45650;SDS011;31365;48.858;8.530;2023-07-30T00:16:33;0.83;;;0.83;;
45650;SDS011;31365;48.858;8.530;2023-07-30T00:19:03;2.13;;;1.17;;
45650;SDS011;31365;48.858;8.530;2023-07-30T00:21:31;1.60;;;1.33;;
45650;SDS011;31365;48.858;8.530;2023-07-30T00:23:59;1.50;;;1.40;;
45650;SDS011;31365;48.858;8.530;2023-07-30T00:26:27;1.13;;;1.00;;
45650;SDS011;31365;48.858;8.530;2023-07-30T00:28:56;1.42;;;1.33;;
45650;SDS011;31365;48.858;8.530;2023-07-30T00:31:24;1.52;;;1.42;;
45650;SDS011;31365;48.858;8.530;2023-07-30T00:33:53;1.55;;;1.45;;
45650;SDS011;31365;48.858;8.530;2023-07-30T00:36:23;2.43;;;1.23;;
45650;SDS011;31365;48.858;8.530;2023-07-30T00:38:51;1.67;;;1.20;;
45650;SDS011;31365;48.858;8.530;2023-07-30T00:41:20;2.00;;;1.40;;
45650;SDS011;31365;48.858;8.530;2023-07-30T00:43:48;1.70;;;1.40;;
45650;SDS011;31365;48.858;8.530;2023-07-30T00:46:17;1.55;;;1.40;;
45650;SDS011;31365;48.858;8.530;2023-07-30T00:48:45;1.45;;;0.98;;
45650;SDS011;31365;48.858;8.530;2023-07-30T00:51:14;1.75;;;1.17;;
45650;SDS011;31365;48.858;8.530;2023-07-30T00:53:45;1.13;;;1.08;;
45650;SDS011;31365;48.858;8.530;2023-07-30T00:56:14;0.90;;;0.90;;
45650;SDS011;31365;48.858;8.530;2023-07-30T00:58:43;1.00;;;1.00;;
45650;SDS011;31365;48.858;8.530;2023-07-30T01:01:15;1.15;;;1.05;;
45650;SDS011;31365;48.858;8.530;2023-07-30T01:03:44;1.33;;;1.23;;
45650;SDS011;31365;48.858;8.530;2023-07-30T01:06:13;1.92;;;1.30;;
45650;SDS011;31365;48.858;8.530;2023-07-30T01:08:42;1.38;;;1.17;;
45650;SDS011;31365;48.858;8.530;2023-07-30T01:11:12;0.95;;;0.95;;
45650;SDS011;31365;48.858;8.530;2023-07-30T01:13:43;1.80;;;1.30;;
45650;SDS011;31365;48.858;8.530;2023-07-30T01:16:14;1.40;;;1.30;;
45650;SDS011;31365;48.858;8.530;2023-07-30T01:18:43;1.40;;;1.30;;
45650;SDS011;31365;48.858;8.530;2023-07-30T01:21:12;1.10;;;1.00;;
45650;SDS011;31365;48.858;8.530;2023-07-30T01:23:41;1.10;;;1.00;;
45650;SDS011;31365;48.858;8.530;2023-07-30T01:26:10;1.60;;;1.13;;
45650;SDS011;31365;48.858;8.530;2023-07-30T01:29:00;1.33;;;1.23;;
45650;SDS011;31365;48.858;8.530;2023-07-30T01:31:34;2.70;;;1.83;;
45650;SDS011;31365;48.858;8.530;2023-07-30T01:34:05;1.30;;;1.20;;
45650;SDS011;31365;48.858;8.530;2023-07-30T01:36:39;1.45;;;1.35;;
45650;SDS011;31365;48.858;8.530;2023-07-30T01:39:10;1.52;;;1.40;;
45650;SDS011;31365;48.858;8.530;2023-07-30T01:41:39;1.63;;;1.52;;
45650;SDS011;31365;48.858;8.530;2023-07-30T01:44:08;1.33;;;1.23;;
45650;SDS011;31365;48.858;8.530;2023-07-30T01:46:36;1.42;;;1.33;;
45650;SDS011;31365;48.858;8.530;2023-07-30T01:49:04;1.65;;;1.55;;
45650;SDS011;31365;48.858;8.530;2023-07-30T01:51:32;1.73;;;1.42;;
45650;SDS011;31365;48.858;8.530;2023-07-30T01:54:03;2.20;;;1.80;;
45650;SDS011;31365;48.858;8.530;2023-07-30T01:56:32;1.63;;;1.52;;
45650;SDS011;31365;48.858;8.530;2023-07-30T01:59:00;3.75;;;1.50;;
45650;SDS011;31365;48.858;8.530;2023-07-30T02:01:28;3.42;;;1.88;;
45650;SDS011;31365;48.858;8.530;2023-07-30T02:03:57;1.83;;;1.70;;
45650;SDS011;31365;48.858;8.530;2023-07-30T02:06:25;1.83;;;1.73;;
45650;SDS011;31365;48.858;8.530;2023-07-30T02:08:54;2.05;;;1.80;;
45650;SDS011;31365;48.858;8.530;2023-07-30T02:11:23;2.05;;;1.95;;
45650;SDS011;31365;48.858;8.530;2023-07-30T02:13:52;2.00;;;1.88;;
45650;SDS011;31365;48.858;8.530;2023-07-30T02:16:21;1.80;;;1.70;;
45650;SDS011;31365;48.858;8.530;2023-07-30T02:18:49;2.53;;;2.10;;
45650;SDS011;31365;48.858;8.530;2023-07-30T02:21:17;2.17;;;1.95;;
45650;SDS011;31365;48.858;8.530;2023-07-30T02:23:45;5.07;;;2.20;;
45650;SDS011;31365;48.858;8.530;2023-07-30T02:26:13;2.45;;;2.10;;
45650;SDS011;31365;48.858;8.530;2023-07-30T02:28:43;3.97;;;2.15;;
45650;SDS011;31365;48.858;8.530;2023-07-30T02:31:12;2.25;;;2.08;;
45650;SDS011;31365;48.858;8.530;2023-07-30T02:33:40;2.40;;;2.00;;
45650;SDS011;31365;48.858;8.530;2023-07-30T02:36:08;3.13;;;2.13;;
45650;SDS011;31365;48.858;8.530;2023-07-30T02:38:36;2.58;;;2.35;;
45650;SDS011;31365;48.858;8.530;2023-07-30T02:41:04;2.85;;;1.90;;
45650;SDS011;31365;48.858;8.530;2023-07-30T02:43:33;2.28;;;1.92;;
45650;SDS011;31365;48.858;8.530;2023-07-30T02:46:03;2.10;;;1.88;;
45650;SDS011;31365;48.858;8.530;2023-07-30T02:48:33;2.25;;;2.05;;
45650;SDS011;31365;48.858;8.530;2023-07-30T02:51:01;2.38;;;2.17;;
45650;SDS011;31365;48.858;8.530;2023-07-30T02:53:30;2.47;;;2.28;;
45650;SDS011;31365;48.858;8.530;2023-07-30T02:55:58;2.67;;;2.47;;
45650;SDS011;31365;48.858;8.530;2023-07-30T02:58:26;2.30;;;2.10;;
45650;SDS011;31365;48.858;8.530;2023-07-30T03:00:55;3.47;;;2.40;;
45650;SDS011;31365;48.858;8.530;2023-07-30T03:03:33;2.17;;;1.98;;
45650;SDS011;31365;48.858;8.530;2023-07-30T03:06:01;2.15;;;2.05;;
45650;SDS011;31365;48.858;8.530;2023-07-30T03:08:30;2.42;;;2.22;;
45650;SDS011;31365;48.858;8.530;2023-07-30T03:10:58;1.90;;;1.80;;
45650;SDS011;31365;48.858;8.530;2023-07-30T03:13:27;2.75;;;1.80;;
45650;SDS011;31365;48.858;8.530;2023-07-30T03:15:55;1.90;;;1.80;;
45650;SDS011;31365;48.858;8.530;2023-07-30T03:18:24;2.38;;;1.98;;
45650;SDS011;31365;48.858;8.530;2023-07-30T03:20:58;1.90;;;1.80;;
45650;SDS011;31365;48.858;8.530;2023-07-30T03:23:27;2.05;;;1.90;;
45650;SDS011;31365;48.858;8.530;2023-07-30T03:25:56;2.28;;;2.10;;
45650;SDS011;31365;48.858;8.530;2023-07-30T03:28:26;2.88;;;2.42;;
45650;SDS011;31365;48.858;8.530;2023-07-30T03:30:54;2.10;;;1.90;;
45650;SDS011;31365;48.858;8.530;2023-07-30T03:33:23;4.35;;;2.45;;
45650;SDS011;31365;48.858;8.530;2023-07-30T03:35:51;4.05;;;2.00;;
45650;SDS011;31365;48.858;8.530;2023-07-30T03:38:21;2.75;;;2.00;;
45650;SDS011;31365;48.858;8.530;2023-07-30T03:40:49;2.67;;;2.00;;
45650;SDS011;31365;48.858;8.530;2023-07-30T03:43:17;1.95;;;1.75;;
45650;SDS011;31365;48.858;8.530;2023-07-30T03:45:46;2.28;;;1.95;;
45650;SDS011;31365;48.858;8.530;2023-07-30T03:48:15;2.17;;;1.77;;
45650;SDS011;31365;48.858;8.530;2023-07-30T03:51:01;2.38;;;1.90;;
45650;SDS011;31365;48.858;8.530;2023-07-30T03:53:31;1.73;;;1.63;;
45650;SDS011;31365;48.858;8.530;2023-07-30T03:55:59;1.42;;;1.33;;
45650;SDS011;31365;48.858;8.530;2023-07-30T03:58:30;1.00;;;1.00;;
45650;SDS011;31365;48.858;8.530;2023-07-30T04:00:58;0.80;;;0.80;;
45650;SDS011;31365;48.858;8.530;2023-07-30T04:03:27;1.35;;;1.25;;
45650;SDS011;31365;48.858;8.530;2023-07-30T04:05:56;1.02;;;1.00;;
45650;SDS011;31365;48.858;8.530;2023-07-30T04:08:25;1.55;;;1.10;;
45650;SDS011;31365;48.858;8.530;2023-07-30T04:10:54;1.50;;;0.90;;
45650;SDS011;31365;48.858;8.530;2023-07-30T04:13:23;3.20;;;1.05;;
45650;SDS011;31365;48.858;8.530;2023-07-30T04:15:51;3.20;;;1.73;;
45650;SDS011;31365;48.858;8.530;2023-07-30T04:18:19;1.27;;;0.93;;
45650;SDS011;31365;48.858;8.530;2023-07-30T04:20:49;1.55;;;1.10;;
45650;SDS011;31365;48.858;8.530;2023-07-30T04:23:17;1.10;;;1.00;;
45650;SDS011;31365;48.858;8.530;2023-07-30T04:25:48;3.10;;;1.20;;
45650;SDS011;31365;48.858;8.530;2023-07-30T04:28:18;2.90;;;1.20;;
45650;SDS011;31365;48.858;8.530;2023-07-30T04:30:46;5.68;;;1.85;;
45650;SDS011;31365;48.858;8.530;2023-07-30T04:33:15;2.85;;;1.25;;
45650;SDS011;31365;48.858;8.530;2023-07-30T04:35:43;1.98;;;1.30;;
45650;SDS011;31365;48.858;8.530;2023-07-30T04:38:11;1.63;;;1.30;;
45650;SDS011;31365;48.858;8.530;2023-07-30T04:40:40;1.63;;;0.95;;
45650;SDS011;31365;48.858;8.530;2023-07-30T04:43:08;1.88;;;1.00;;
45650;SDS011;31365;48.858;8.530;2023-07-30T04:45:39;2.03;;;1.13;;
45650;SDS011;31365;48.858;8.530;2023-07-30T04:48:07;1.67;;;1.38;;
45650;SDS011;31365;48.858;8.530;2023-07-30T04:50:35;1.48;;;1.20;;
45650;SDS011;31365;48.858;8.530;2023-07-30T04:53:06;1.27;;;1.17;;
45650;SDS011;31365;48.858;8.530;2023-07-30T04:55:34;1.13;;;1.02;;
45650;SDS011;31365;48.858;8.530;2023-07-30T04:58:02;2.42;;;1.00;;
45650;SDS011;31365;48.858;8.530;2023-07-30T05:00:31;1.08;;;1.08;;
45650;SDS011;31365;48.858;8.530;2023-07-30T05:03:01;1.20;;;1.10;;
45650;SDS011;31365;48.858;8.530;2023-07-30T05:05:30;1.35;;;1.23;;
45650;SDS011;31365;48.858;8.530;2023-07-30T05:07:58;1.48;;;1.38;;
45650;SDS011;31365;48.858;8.530;2023-07-30T05:10:26;2.38;;;1.08;;
45650;SDS011;31365;48.858;8.530;2023-07-30T05:12:55;1.27;;;1.00;;
45650;SDS011;31365;48.858;8.530;2023-07-30T05:15:23;4.63;;;1.40;;
45650;SDS011;31365;48.858;8.530;2023-07-30T05:17:51;1.17;;;0.85;;
45650;SDS011;31365;48.858;8.530;2023-07-30T05:20:21;0.95;;;0.95;;
45650;SDS011;31365;48.858;8.530;2023-07-30T05:22:49;2.85;;;1.50;;
45650;SDS011;31365;48.858;8.530;2023-07-30T05:25:17;1.65;;;1.40;;
45650;SDS011;31365;48.858;8.530;2023-07-30T05:27:46;2.50;;;1.35;;
45650;SDS011;31365;48.858;8.530;2023-07-30T05:30:14;1.92;;;1.10;;
45650;SDS011;31365;48.858;8.530;2023-07-30T05:32:42;1.17;;;1.10;;
45650;SDS011;31365;48.858;8.530;2023-07-30T05:35:10;1.40;;;1.30;;
45650;SDS011;31365;48.858;8.530;2023-07-30T05:37:39;1.25;;;1.15;;
45650;SDS011;31365;48.858;8.530;2023-07-30T05:40:08;1.70;;;1.60;;
45650;SDS011;31365;48.858;8.530;2023-07-30T05:42:36;1.58;;;1.40;;
45650;SDS011;31365;48.858;8.530;2023-07-30T05:45:05;1.58;;;1.27;;
45650;SDS011;31365;48.858;8.530;2023-07-30T05:47:35;2.17;;;1.30;;
45650;SDS011;31365;48.858;8.530;2023-07-30T05:50:03;2.03;;;1.80;;
45650;SDS011;31365;48.858;8.530;2023-07-30T05:52:33;2.30;;;1.77;;
45650;SDS011;31365;48.858;8.530;2023-07-30T05:55:04;2.45;;;1.60;;
45650;SDS011;31365;48.858;8.530;2023-07-30T05:57:33;1.73;;;1.60;;
45650;SDS011;31365;48.858;8.530;2023-07-30T06:00:01;1.63;;;1.50;;
45650;SDS011;31365;48.858;8.530;2023-07-30T06:02:37;1.50;;;1.40;;
45650;SDS011;31365;48.858;8.530;2023-07-30T06:05:05;1.50;;;1.40;;
45650;SDS011;31365;48.858;8.530;2023-07-30T06:07:33;1.73;;;1.60;;
45650;SDS011;31365;48.858;8.530;2023-07-30T06:10:02;1.35;;;1.15;;
45650;SDS011;31365;48.858;8.530;2023-07-30T06:12:32;1.75;;;1.33;;
45650;SDS011;31365;48.858;8.530;2023-07-30T06:15:00;1.42;;;1.33;;
45650;SDS011;31365;48.858;8.530;2023-07-30T06:17:30;1.50;;;1.40;;
45650;SDS011;31365;48.858;8.530;2023-07-30T06:19:59;1.42;;;1.33;;
45650;SDS011;31365;48.858;8.530;2023-07-30T06:22:28;1.65;;;1.55;;
45650;SDS011;31365;48.858;8.530;2023-07-30T06:24:56;1.40;;;1.30;;
45650;SDS011;31365;48.858;8.530;2023-07-30T06:27:26;1.40;;;1.30;;
45650;SDS011;31365;48.858;8.530;2023-07-30T06:29:54;1.63;;;1.52;;
45650;SDS011;31365;48.858;8.530;2023-07-30T06:32:23;1.40;;;1.30;;
45650;SDS011;31365;48.858;8.530;2023-07-30T06:34:51;3.13;;;1.58;;
45650;SDS011;31365;48.858;8.530;2023-07-30T06:37:19;1.40;;;1.30;;
45650;SDS011;31365;48.858;8.530;2023-07-30T06:39:48;1.40;;;1.30;;
45650;SDS011;31365;48.858;8.530;2023-07-30T06:42:16;1.65;;;1.50;;
45650;SDS011;31365;48.858;8.530;2023-07-30T06:44:46;1.77;;;1.50;;
45650;SDS011;31365;48.858;8.530;2023-07-30T06:47:14;1.23;;;1.08;;
45650;SDS011;31365;48.858;8.530;2023-07-30T06:49:42;1.08;;;1.08;;
45650;SDS011;31365;48.858;8.530;2023-07-30T06:52:10;0.95;;;0.95;;
45650;SDS011;31365;48.858;8.530;2023-07-30T06:54:38;2.25;;;1.20;;
45650;SDS011;31365;48.858;8.530;2023-07-30T06:57:06;1.33;;;1.23;;
45650;SDS011;31365;48.858;8.530;2023-07-30T06:59:34;1.65;;;1.40;;
45650;SDS011;31365;48.858;8.530;2023-07-30T07:02:04;1.77;;;1.30;;
45650;SDS011;31365;48.858;8.530;2023-07-30T07:04:33;1.83;;;1.60;;
45650;SDS011;31365;48.858;8.530;2023-07-30T07:07:01;1.40;;;1.30;;
45650;SDS011;31365;48.858;8.530;2023-07-30T07:09:30;1.42;;;1.33;;
45650;SDS011;31365;48.858;8.530;2023-07-30T07:11:58;1.42;;;1.33;;
45650;SDS011;31365;48.858;8.530;2023-07-30T07:14:27;1.75;;;1.60;;
45650;SDS011;31365;48.858;8.530;2023-07-30T07:16:55;1.70;;;1.60;;
45650;SDS011;31365;48.858;8.530;2023-07-30T07:19:26;1.63;;;1.52;;
45650;SDS011;31365;48.858;8.530;2023-07-30T07:21:54;1.30;;;1.20;;
45650;SDS011;31365;48.858;8.530;2023-07-30T07:24:22;2.17;;;1.50;;
45650;SDS011;31365;48.858;8.530;2023-07-30T07:26:50;1.38;;;1.27;;
45650;SDS011;31365;48.858;8.530;2023-07-30T07:29:19;1.52;;;1.42;;
45650;SDS011;31365;48.858;8.530;2023-07-30T07:31:47;1.48;;;1.38;;
45650;SDS011;31365;48.858;8.530;2023-07-30T07:34:15;2.75;;;1.48;;
45650;SDS011;31365;48.858;8.530;2023-07-30T07:36:45;3.75;;;1.70;;
45650;SDS011;31365;48.858;8.530;2023-07-30T07:39:13;1.55;;;1.45;;
45650;SDS011;31365;48.858;8.530;2023-07-30T07:41:41;2.33;;;1.75;;
45650;SDS011;31365;48.858;8.530;2023-07-30T07:44:10;2.10;;;1.13;;
45650;SDS011;31365;48.858;8.530;2023-07-30T07:46:39;1.45;;;1.35;;
45650;SDS011;31365;48.858;8.530;2023-07-30T07:49:07;3.33;;;1.55;;
45650;SDS011;31365;48.858;8.530;2023-07-30T07:51:35;1.50;;;1.40;;
45650;SDS011;31365;48.858;8.530;2023-07-30T07:54:05;1.88;;;1.35;;
45650;SDS011;31365;48.858;8.530;2023-07-30T07:56:34;1.60;;;1.50;;
45650;SDS011;31365;48.858;8.530;2023-07-30T07:59:02;1.60;;;1.50;;
45650;SDS011;31365;48.858;8.530;2023-07-30T08:01:31;1.45;;;1.35;;
45650;SDS011;31365;48.858;8.530;2023-07-30T08:03:59;3.05;;;1.95;;
45650;SDS011;31365;48.858;8.530;2023-07-30T08:06:27;2.22;;;1.30;;
45650;SDS011;31365;48.858;8.530;2023-07-30T08:08:56;3.70;;;3.38;;
45650;SDS011;31365;48.858;8.530;2023-07-30T08:11:26;2.85;;;1.50;;
45650;SDS011;31365;48.858;8.530;2023-07-30T08:13:54;2.03;;;1.80;;
45650;SDS011;31365;48.858;8.530;2023-07-30T08:16:23;1.83;;;1.52;;
45650;SDS011;31365;48.858;8.530;2023-07-30T08:18:52;1.80;;;1.42;;
45650;SDS011;31365;48.858;8.530;2023-07-30T08:21:21;2.53;;;1.90;;
45650;SDS011;31365;48.858;8.530;2023-07-30T08:23:49;2.65;;;1.70;;
45650;SDS011;31365;48.858;8.530;2023-07-30T08:26:17;1.65;;;1.55;;
45650;SDS011;31365;48.858;8.530;2023-07-30T08:28:47;1.75;;;1.65;;
45650;SDS011;31365;48.858;8.530;2023-07-30T08:31:15;2.00;;;1.83;;
45650;SDS011;31365;48.858;8.530;2023-07-30T08:33:44;1.67;;;1.58;;
45650;SDS011;31365;48.858;8.530;2023-07-30T08:36:12;1.85;;;1.75;;
45650;SDS011;31365;48.858;8.530;2023-07-30T08:38:40;2.15;;;1.90;;
45650;SDS011;31365;48.858;8.530;2023-07-30T08:41:08;1.50;;;1.40;;
45650;SDS011;31365;48.858;8.530;2023-07-30T08:43:37;3.63;;;1.60;;
45650;SDS011;31365;48.858;8.530;2023-07-30T08:46:07;3.88;;;1.83;;
45650;SDS011;31365;48.858;8.530;2023-07-30T08:48:35;1.58;;;1.48;;
45650;SDS011;31365;48.858;8.530;2023-07-30T08:51:05;1.80;;;1.70;;
45650;SDS011;31365;48.858;8.530;2023-07-30T08:53:33;2.30;;;1.80;;
45650;SDS011;31365;48.858;8.530;2023-07-30T08:56:02;2.22;;;1.80;;
45650;SDS011;31365;48.858;8.530;2023-07-30T08:58:34;2.83;;;2.00;;
45650;SDS011;31365;48.858;8.530;2023-07-30T09:01:05;3.28;;;2.10;;
45650;SDS011;31365;48.858;8.530;2023-07-30T09:03:39;2.10;;;1.50;;
45650;SDS011;31365;48.858;8.530;2023-07-30T09:06:08;1.83;;;1.67;;
45650;SDS011;31365;48.858;8.530;2023-07-30T09:08:36;2.03;;;1.70;;
45650;SDS011;31365;48.858;8.530;2023-07-30T09:11:08;1.75;;;1.65;;
45650;SDS011;31365;48.858;8.530;2023-07-30T09:13:37;2.00;;;1.80;;
45650;SDS011;31365;48.858;8.530;2023-07-30T09:16:11;1.95;;;1.65;;
45650;SDS011;31365;48.858;8.530;2023-07-30T09:18:42;3.10;;;1.73;;
45650;SDS011;31365;48.858;8.530;2023-07-30T09:21:15;2.47;;;1.90;;
45650;SDS011;31365;48.858;8.530;2023-07-30T09:23:44;2.60;;;2.08;;
45650;SDS011;31365;48.858;8.530;2023-07-30T09:26:14;2.42;;;1.75;;
45650;SDS011;31365;48.858;8.530;2023-07-30T09:28:43;2.53;;;1.75;;
45650;SDS011;31365;48.858;8.530;2023-07-30T09:31:13;2.85;;;2.00;;
45650;SDS011;31365;48.858;8.530;2023-07-30T09:33:48;2.60;;;2.08;;
45650;SDS011;31365;48.858;8.530;2023-07-30T09:36:18;3.53;;;1.90;;
45650;SDS011;31365;48.858;8.530;2023-07-30T09:38:46;1.98;;;1.77;;
45650;SDS011;31365;48.858;8.530;2023-07-30T09:41:16;2.05;;;1.85;;
45650;SDS011;31365;48.858;8.530;2023-07-30T09:43:44;2.45;;;1.77;;
45650;SDS011;31365;48.858;8.530;2023-07-30T09:46:14;4.10;;;2.00;;
45650;SDS011;31365;48.858;8.530;2023-07-30T09:48:42;2.65;;;2.33;;
45650;SDS011;31365;48.858;8.530;2023-07-30T09:51:10;1.90;;;1.80;;
45650;SDS011;31365;48.858;8.530;2023-07-30T09:53:39;2.17;;;1.90;;
45650;SDS011;31365;48.858;8.530;2023-07-30T09:56:09;2.15;;;1.88;;
45650;SDS011;31365;48.858;8.530;2023-07-30T09:58:37;2.03;;;1.60;;
45650;SDS011;31365;48.858;8.530;2023-07-30T10:01:08;1.90;;;1.40;;
45650;SDS011;31365;48.858;8.530;2023-07-30T10:03:38;2.25;;;1.95;;
45650;SDS011;31365;48.858;8.530;2023-07-30T10:06:07;2.38;;;1.90;;
45650;SDS011;31365;48.858;8.530;2023-07-30T10:08:38;2.50;;;1.95;;
45650;SDS011;31365;48.858;8.530;2023-07-30T10:11:08;2.35;;;1.90;;
45650;SDS011;31365;48.858;8.530;2023-07-30T10:13:39;4.80;;;2.20;;
45650;SDS011;31365;48.858;8.530;2023-07-30T10:16:09;2.50;;;1.73;;
45650;SDS011;31365;48.858;8.530;2023-07-30T10:18:39;2.58;;;1.80;;
45650;SDS011;31365;48.858;8.530;2023-07-30T10:21:10;2.60;;;1.63;;
45650;SDS011;31365;48.858;8.530;2023-07-30T10:23:50;4.05;;;1.98;;
45650;SDS011;31365;48.858;8.530;2023-07-30T10:26:29;2.40;;;2.10;;
45650;SDS011;31365;48.858;8.530;2023-07-30T10:29:11;3.65;;;1.67;;
45650;SDS011;31365;48.858;8.530;2023-07-30T10:31:42;2.65;;;1.70;;
45650;SDS011;31365;48.858;8.530;2023-07-30T10:34:16;5.85;;;2.55;;
45650;SDS011;31365;48.858;8.530;2023-07-30T10:36:46;3.17;;;2.00;;
45650;SDS011;31365;48.858;8.530;2023-07-30T10:39:16;2.50;;;1.95;;
45650;SDS011;31365;48.858;8.530;2023-07-30T10:41:47;3.28;;;2.33;;
45650;SDS011;31365;48.858;8.530;2023-07-30T10:44:19;2.30;;;1.90;;
45650;SDS011;31365;48.858;8.530;2023-07-30T10:46:51;2.33;;;2.08;;
45650;SDS011;31365;48.858;8.530;2023-07-30T10:49:22;2.38;;;2.08;;
45650;SDS011;31365;48.858;8.530;2023-07-30T10:51:51;1.85;;;1.52;;
45650;SDS011;31365;48.858;8.530;2023-07-30T10:54:20;3.30;;;2.00;;
45650;SDS011;31365;48.858;8.530;2023-07-30T10:56:49;2.58;;;2.00;;
45650;SDS011;31365;48.858;8.530;2023-07-30T10:59:19;3.13;;;2.38;;
45650;SDS011;31365;48.858;8.530;2023-07-30T11:01:47;3.10;;;2.35;;
45650;SDS011;31365;48.858;8.530;2023-07-30T11:04:17;3.67;;;2.35;;
45650;SDS011;31365;48.858;8.530;2023-07-30T11:06:49;3.17;;;1.92;;
45650;SDS011;31365;48.858;8.530;2023-07-30T11:09:19;2.42;;;2.00;;
45650;SDS011;31365;48.858;8.530;2023-07-30T11:11:49;2.05;;;1.85;;
45650;SDS011;31365;48.858;8.530;2023-07-30T11:14:20;2.78;;;1.70;;
45650;SDS011;31365;48.858;8.530;2023-07-30T11:16:52;2.10;;;1.90;;
45650;SDS011;31365;48.858;8.530;2023-07-30T11:19:26;3.50;;;1.70;;
45650;SDS011;31365;48.858;8.530;2023-07-30T11:21:57;4.10;;;2.13;;
45650;SDS011;31365;48.858;8.530;2023-07-30T11:24:33;3.63;;;1.92;;
45650;SDS011;31365;48.858;8.530;2023-07-30T11:27:01;2.72;;;2.00;;
45650;SDS011;31365;48.858;8.530;2023-07-30T11:29:31;1.70;;;1.60;;
45650;SDS011;31365;48.858;8.530;2023-07-30T11:31:59;2.05;;;1.80;;
45650;SDS011;31365;48.858;8.530;2023-07-30T11:34:29;1.80;;;1.70;;
45650;SDS011;31365;48.858;8.530;2023-07-30T11:37:04;3.38;;;1.50;;
45650;SDS011;31365;48.858;8.530;2023-07-30T11:39:33;2.03;;;1.70;;
45650;SDS011;31365;48.858;8.530;2023-07-30T11:42:02;3.65;;;1.65;;
45650;SDS011;31365;48.858;8.530;2023-07-30T11:44:31;1.65;;;1.55;;
45650;SDS011;31365;48.858;8.530;2023-07-30T11:47:05;3.00;;;1.60;;
45650;SDS011;31365;48.858;8.530;2023-07-30T11:49:33;2.13;;;1.40;;
45650;SDS011;31365;48.858;8.530;2023-07-30T11:52:06;4.95;;;1.38;;
45650;SDS011;31365;48.858;8.530;2023-07-30T11:54:37;3.00;;;1.80;;
45650;SDS011;31365;48.858;8.530;2023-07-30T11:57:05;2.65;;;1.75;;
45650;SDS011;31365;48.858;8.530;2023-07-30T11:59:34;3.63;;;1.63;;
45650;SDS011;31365;48.858;8.530;2023-07-30T12:02:03;1.65;;;1.35;;
45650;SDS011;31365;48.858;8.530;2023-07-30T12:04:42;1.58;;;1.15;;
45650;SDS011;31365;48.858;8.530;2023-07-30T12:07:23;3.97;;;1.50;;
45650;SDS011;31365;48.858;8.530;2023-07-30T12:09:52;3.70;;;1.85;;
45650;SDS011;31365;48.858;8.530;2023-07-30T12:12:24;3.28;;;1.38;;
45650;SDS011;31365;48.858;8.530;2023-07-30T12:14:54;2.38;;;1.27;;
45650;SDS011;31365;48.858;8.530;2023-07-30T12:17:22;2.45;;;1.42;;
45650;SDS011;31365;48.858;8.530;2023-07-30T12:19:50;1.67;;;1.45;;
45650;SDS011;31365;48.858;8.530;2023-07-30T12:22:18;2.03;;;1.15;;
45650;SDS011;31365;48.858;8.530;2023-07-30T12:24:48;2.15;;;1.50;;
45650;SDS011;31365;48.858;8.530;2023-07-30T12:27:16;1.25;;;1.13;;
45650;SDS011;31365;48.858;8.530;2023-07-30T12:29:45;3.05;;;1.60;;
45650;SDS011;31365;48.858;8.530;2023-07-30T12:32:13;3.85;;;1.50;;
45650;SDS011;31365;48.858;8.530;2023-07-30T12:34:41;3.80;;;1.52;;
45650;SDS011;31365;48.858;8.530;2023-07-30T12:37:09;2.40;;;1.73;;
45650;SDS011;31365;48.858;8.530;2023-07-30T12:39:38;2.05;;;1.45;;
45650;SDS011;31365;48.858;8.530;2023-07-30T12:42:07;2.65;;;1.27;;
45650;SDS011;31365;48.858;8.530;2023-07-30T12:44:35;3.53;;;1.88;;
45650;SDS011;31365;48.858;8.530;2023-07-30T12:47:04;2.13;;;1.20;;
45650;SDS011;31365;48.858;8.530;2023-07-30T12:49:32;2.67;;;1.33;;
45650;SDS011;31365;48.858;8.530;2023-07-30T12:52:00;2.13;;;1.70;;
45650;SDS011;31365;48.858;8.530;2023-07-30T12:54:29;2.55;;;1.40;;
45650;SDS011;31365;48.858;8.530;2023-07-30T12:56:57;3.22;;;2.00;;
45650;SDS011;31365;48.858;8.530;2023-07-30T12:59:27;1.95;;;1.45;;
45650;SDS011;31365;48.858;8.530;2023-07-30T13:01:55;2.33;;;1.67;;
45650;SDS011;31365;48.858;8.530;2023-07-30T13:04:23;2.95;;;1.83;;
45650;SDS011;31365;48.858;8.530;2023-07-30T13:06:54;2.65;;;1.63;;
45650;SDS011;31365;48.858;8.530;2023-07-30T13:09:22;2.13;;;1.60;;
45650;SDS011;31365;48.858;8.530;2023-07-30T13:11:51;4.10;;;1.50;;
45650;SDS011;31365;48.858;8.530;2023-07-30T13:14:19;3.10;;;1.65;;
45650;SDS011;31365;48.858;8.530;2023-07-30T13:16:49;2.78;;;1.50;;
45650;SDS011;31365;48.858;8.530;2023-07-30T13:19:17;3.67;;;1.80;;
45650;SDS011;31365;48.858;8.530;2023-07-30T13:21:45;2.88;;;2.15;;
45650;SDS011;31365;48.858;8.530;2023-07-30T13:24:13;3.00;;;1.65;;
45650;SDS011;31365;48.858;8.530;2023-07-30T13:26:42;2.53;;;1.63;;
45650;SDS011;31365;48.858;8.530;2023-07-30T13:29:10;4.53;;;1.60;;
45650;SDS011;31365;48.858;8.530;2023-07-30T13:31:38;2.70;;;1.60;;
45650;SDS011;31365;48.858;8.530;2023-07-30T13:34:09;3.63;;;1.70;;
45650;SDS011;31365;48.858;8.530;2023-07-30T13:36:37;2.47;;;1.33;;
45650;SDS011;31365;48.858;8.530;2023-07-30T13:39:05;2.13;;;1.40;;
45650;SDS011;31365;48.858;8.530;2023-07-30T13:41:33;2.97;;;1.45;;
45650;SDS011;31365;48.858;8.530;2023-07-30T13:44:06;3.42;;;2.00;;
45650;SDS011;31365;48.858;8.530;2023-07-30T13:46:34;2.55;;;1.40;;
45650;SDS011;31365;48.858;8.530;2023-07-30T13:49:02;2.95;;;1.58;;
45650;SDS011;31365;48.858;8.530;2023-07-30T13:51:33;3.10;;;1.60;;
45650;SDS011;31365;48.858;8.530;2023-07-30T13:54:01;4.40;;;1.30;;
45650;SDS011;31365;48.858;8.530;2023-07-30T13:56:31;3.22;;;1.65;;
45650;SDS011;31365;48.858;8.530;2023-07-30T13:58:59;4.32;;;1.60;;
45650;SDS011;31365;48.858;8.530;2023-07-30T14:01:28;5.40;;;1.83;;
45650;SDS011;31365;48.858;8.530;2023-07-30T14:03:57;3.50;;;1.80;;
45650;SDS011;31365;48.858;8.530;2023-07-30T14:06:25;2.45;;;1.40;;
45650;SDS011;31365;48.858;8.530;2023-07-30T14:08:55;2.22;;;1.63;;
45650;SDS011;31365;48.858;8.530;2023-07-30T14:11:25;2.75;;;1.67;;
45650;SDS011;31365;48.858;8.530;2023-07-30T14:13:54;1.95;;;1.25;;
45650;SDS011;31365;48.858;8.530;2023-07-30T14:16:24;4.03;;;1.60;;
45650;SDS011;31365;48.858;8.530;2023-07-30T14:18:53;1.73;;;1.50;;
45650;SDS011;31365;48.858;8.530;2023-07-30T14:21:21;1.75;;;1.40;;
45650;SDS011;31365;48.858;8.530;2023-07-30T14:23:50;3.03;;;1.33;;
45650;SDS011;31365;48.858;8.530;2023-07-30T14:26:20;3.92;;;1.40;;
45650;SDS011;31365;48.858;8.530;2023-07-30T14:28:48;2.15;;;1.45;;
45650;SDS011;31365;48.858;8.530;2023-07-30T14:31:16;2.88;;;1.42;;
45650;SDS011;31365;48.858;8.530;2023-07-30T14:33:45;2.97;;;1.23;;
45650;SDS011;31365;48.858;8.530;2023-07-30T14:36:13;2.95;;;1.50;;
45650;SDS011;31365;48.858;8.530;2023-07-30T14:38:41;1.73;;;1.40;;
45650;SDS011;31365;48.858;8.530;2023-07-30T14:41:09;4.53;;;1.70;;
45650;SDS011;31365;48.858;8.530;2023-07-30T14:43:39;2.22;;;1.48;;
45650;SDS011;31365;48.858;8.530;2023-07-30T14:46:08;2.90;;;1.90;;
45650;SDS011;31365;48.858;8.530;2023-07-30T14:48:39;3.60;;;1.63;;
45650;SDS011;31365;48.858;8.530;2023-07-30T14:51:09;1.98;;;1.50;;
45650;SDS011;31365;48.858;8.530;2023-07-30T14:53:38;5.20;;;2.03;;
45650;SDS011;31365;48.858;8.530;2023-07-30T14:56:06;2.55;;;1.52;;
45650;SDS011;31365;48.858;8.530;2023-07-30T14:58:34;2.80;;;1.15;;
45650;SDS011;31365;48.858;8.530;2023-07-30T15:01:03;3.63;;;1.67;;